Time;durP1;ratioP1;P1;durP2;ratioP2;P2;SDS_P1;SDS_P2;PMS_P1;PMS_P2;Temp;Humidity;BMP_temperature;BMP_pressure;BME280_temperature;BME280_humidity;BME280_pressure;Samples;Min_cycle;Max_cycle;Signal;HPM_P1;HPM_P2
2023/08/07 00:01:41;;;;;;;0.40;0.40;;;;;;;20.09;nan;100356.78;4989223;28;20097;-85
2023/08/07 00:04:07;;;;;;;0.40;0.40;;;;;;;20.08;nan;100366.47;4971523;28;20334;-86
2023/08/07 00:06:32;;;;;;;0.30;0.30;;;;;;;20.09;nan;100369.94;4974547;28;20090;-86
2023/08/07 00:08:57;;;;;;;0.40;0.40;;;;;;;20.08;nan;100371.75;4972163;28;20096;-86
2023/08/07 00:11:23;;;;;;;0.50;0.50;;;;;;;20.09;nan;100364.69;4990381;28;20116;-85
2023/08/07 00:13:48;;;;;;;0.47;0.47;;;;;;;20.08;nan;100353.28;4973064;28;20120;-86
2023/08/07 00:16:13;;;;;;;0.50;0.50;;;;;;;20.07;nan;100356.03;4994169;28;20023;-86
2023/08/07 00:18:39;;;;;;;0.50;0.50;;;;;;;20.08;nan;100357.69;4975612;28;20030;-86
2023/08/07 00:21:04;;;;;;;0.50;0.50;;;;;;;20.06;nan;100363.09;4993555;28;20046;-86
2023/08/07 00:23:29;;;;;;;0.35;0.35;;;;;;;20.07;nan;100367.41;4978779;28;20037;-86
2023/08/07 00:25:55;;;;;;;0.52;0.40;;;;;;;20.07;nan;100362.13;4991422;28;20065;-86
2023/08/07 00:28:20;;;;;;;0.50;0.50;;;;;;;20.07;nan;100369.19;4991429;28;20379;-86
2023/08/07 00:30:45;;;;;;;1.38;0.43;;;;;;;20.07;nan;100372.66;4994173;28;20029;-86
2023/08/07 00:33:11;;;;;;;0.50;0.50;;;;;;;20.07;nan;100361.28;4992323;28;20034;-86
2023/08/07 00:35:36;;;;;;;0.55;0.52;;;;;;;20.07;nan;100361.28;4992402;28;20630;-86
2023/08/07 00:38:02;;;;;;;0.50;0.50;;;;;;;20.05;nan;100358.78;4990596;28;20022;-86
2023/08/07 00:40:27;;;;;;;0.47;0.47;;;;;;;20.06;nan;100360.47;4991306;28;20798;-87
2023/08/07 00:42:52;;;;;;;0.43;0.43;;;;;;;20.05;nan;100364.06;4990379;28;20022;-86
2023/08/07 00:45:18;;;;;;;0.55;0.55;;;;;;;20.06;nan;100371.00;4976067;28;20036;-86
2023/08/07 00:47:43;;;;;;;0.40;0.40;;;;;;;20.05;nan;100368.47;4990642;28;20038;-86
2023/08/07 00:50:10;;;;;;;0.60;0.60;;;;;;;20.04;nan;100378.19;4991914;28;21060;-86
2023/08/07 00:52:36;;;;;;;0.50;0.50;;;;;;;20.05;nan;100371.13;4991177;28;20485;-86
2023/08/07 00:55:01;;;;;;;0.45;0.45;;;;;;;20.04;nan;100372.91;4997019;28;20041;-86
2023/08/07 00:57:27;;;;;;;0.50;0.50;;;;;;;20.05;nan;100368.47;4972016;28;20038;-86
2023/08/07 00:59:52;;;;;;;0.80;0.30;;;;;;;20.06;nan;100370.16;4991808;28;20021;-86
2023/08/07 01:02:18;;;;;;;1.48;0.47;;;;;;;20.05;nan;100371.13;4992873;28;20054;-86
2023/08/07 01:04:44;;;;;;;0.50;0.50;;;;;;;20.05;nan;100369.31;4991710;28;20088;-84
2023/08/07 01:07:09;;;;;;;0.52;0.52;;;;;;;20.04;nan;100369.44;4991018;28;20322;-85
2023/08/07 01:09:35;;;;;;;0.40;0.40;;;;;;;20.03;nan;100368.59;4990628;28;20030;-85
2023/08/07 01:12:16;;;;;;;0.38;0.38;;;;;;;20.04;nan;100372.06;4976364;28;20038;-86
2023/08/07 01:15:29;;;;;;;0.40;0.40;;;;;;;20.04;nan;100367.66;4979948;28;20030;-86
2023/08/07 01:17:55;;;;;;;0.68;0.68;;;;;;;20.02;nan;100372.16;4968875;28;20112;-86
2023/08/07 01:20:20;;;;;;;0.43;0.43;;;;;;;20.03;nan;100371.25;4982299;28;20796;-85
2023/08/07 01:22:46;;;;;;;0.55;0.55;;;;;;;20.03;nan;100373.03;4993189;28;20097;-86
2023/08/07 01:25:12;;;;;;;0.40;0.40;;;;;;;20.02;nan;100369.53;4994701;28;20128;-85
2023/08/07 01:27:46;;;;;;;0.60;0.60;;;;;;;20.03;nan;100370.41;4991885;28;20091;-85
2023/08/07 01:30:15;;;;;;;0.63;0.50;;;;;;;20.02;nan;100374.81;4989540;28;20030;-86
2023/08/07 01:33:01;;;;;;;0.40;0.40;;;;;;;20.03;nan;100373.03;4989332;28;20038;-85
2023/08/07 01:35:30;;;;;;;0.30;0.30;;;;;;;20.03;nan;100375.66;4975258;28;20029;-85
2023/08/07 01:37:56;;;;;;;0.40;0.40;;;;;;;20.03;nan;100375.66;4991492;28;20963;-85
2023/08/07 01:40:22;;;;;;;0.47;0.47;;;;;;;20.02;nan;100376.59;4976122;28;20273;-85
2023/08/07 01:42:47;;;;;;;0.60;0.60;;;;;;;20.03;nan;100375.66;4991750;28;20022;-85
2023/08/07 01:45:13;;;;;;;0.60;0.60;;;;;;;20.02;nan;100379.22;4989196;28;20026;-85
2023/08/07 01:47:38;;;;;;;0.50;0.50;;;;;;;20.02;nan;100385.34;4974112;28;20034;-85
2023/08/07 01:50:04;;;;;;;0.50;0.50;;;;;;;20.01;nan;100383.66;4973705;28;20041;-84
2023/08/07 01:52:29;;;;;;;0.40;0.40;;;;;;;20.00;nan;100383.78;4989782;28;20034;-85
2023/08/07 01:54:55;;;;;;;0.50;0.50;;;;;;;20.01;nan;100386.31;5000066;28;20029;-85
2023/08/07 01:57:20;;;;;;;0.40;0.40;;;;;;;20.00;nan;100376.72;4991953;28;20037;-85
2023/08/07 01:59:45;;;;;;;0.35;0.35;;;;;;;20.01;nan;100386.31;4991085;28;20030;-85
2023/08/07 02:02:11;;;;;;;0.50;0.50;;;;;;;20.01;nan;100382.81;4989708;28;20029;-85
2023/08/07 02:04:36;;;;;;;0.68;0.68;;;;;;;20.02;nan;100387.13;4978759;28;20030;-85
2023/08/07 02:07:02;;;;;;;0.77;0.55;;;;;;;20.00;nan;100386.41;4973954;28;20068;-85
2023/08/07 02:09:27;;;;;;;0.40;0.40;;;;;;;20.00;nan;100391.69;4991648;28;20120;-86
2023/08/07 02:11:52;;;;;;;0.47;0.40;;;;;;;20.00;nan;100395.16;4987283;28;20034;-85
2023/08/07 02:14:18;;;;;;;0.35;0.35;;;;;;;19.99;nan;100385.59;4975185;28;20033;-86
2023/08/07 02:16:43;;;;;;;0.60;0.60;;;;;;;19.99;nan;100392.66;4989818;28;20038;-86
2023/08/07 02:19:08;;;;;;;0.47;0.47;;;;;;;19.99;nan;100395.28;4993333;28;20088;-86
2023/08/07 02:21:34;;;;;;;0.70;0.70;;;;;;;19.99;nan;100400.56;4990551;28;20053;-86
2023/08/07 02:23:59;;;;;;;0.60;0.60;;;;;;;19.98;nan;100386.53;4970388;28;20147;-86
2023/08/07 02:26:24;;;;;;;1.15;0.70;;;;;;;19.98;nan;100388.34;4990441;28;20026;-86
2023/08/07 02:28:50;;;;;;;0.45;0.45;;;;;;;19.96;nan;100388.44;4991858;28;20094;-85
2023/08/07 02:31:15;;;;;;;0.50;0.50;;;;;;;19.98;nan;100397.09;4974371;28;20072;-85
2023/08/07 02:33:41;;;;;;;0.50;0.50;;;;;;;19.98;nan;100396.25;4975112;28;20060;-84
2023/08/07 02:36:07;;;;;;;0.40;0.40;;;;;;;19.98;nan;100405.00;4987753;28;20062;-85
2023/08/07 02:38:32;;;;;;;0.40;0.40;;;;;;;19.99;nan;100400.56;4989744;28;20030;-86
2023/08/07 02:40:57;;;;;;;0.50;0.50;;;;;;;19.98;nan;100406.78;4990844;28;20409;-86
2023/08/07 02:43:23;;;;;;;0.47;0.47;;;;;;;19.98;nan;100409.41;4990003;28;20046;-85
2023/08/07 02:45:48;;;;;;;0.40;0.40;;;;;;;19.97;nan;100402.47;4992162;28;20066;-85
2023/08/07 02:48:13;;;;;;;0.65;0.65;;;;;;;19.97;nan;100413.84;4988856;28;20026;-85
2023/08/07 02:50:39;;;;;;;0.65;0.65;;;;;;;19.96;nan;100403.41;4990178;28;20027;-85
2023/08/07 02:53:04;;;;;;;0.50;0.50;;;;;;;19.96;nan;100406.88;4988027;28;20032;-86
2023/08/07 02:55:29;;;;;;;0.40;0.40;;;;;;;19.97;nan;100405.94;4994116;28;20030;-86
2023/08/07 02:57:55;;;;;;;0.57;0.50;;;;;;;19.96;nan;100408.66;4990136;28;21450;-86
2023/08/07 03:00:20;;;;;;;0.50;0.50;;;;;;;19.97;nan;100410.38;4988541;28;20025;-86
2023/08/07 03:02:45;;;;;;;0.40;0.40;;;;;;;19.96;nan;100400.75;4974438;28;20030;-86
2023/08/07 03:05:11;;;;;;;0.50;0.50;;;;;;;19.96;nan;100400.75;4988947;28;20101;-86
2023/08/07 03:07:37;;;;;;;0.95;0.60;;;;;;;19.96;nan;100408.66;4989206;28;20061;-86
2023/08/07 03:10:03;;;;;;;0.43;0.43;;;;;;;19.95;nan;100409.63;4988467;28;20033;-86
2023/08/07 03:12:29;;;;;;;0.50;0.50;;;;;;;19.95;nan;100410.47;4974233;28;20038;-86
2023/08/07 03:14:54;;;;;;;0.40;0.40;;;;;;;19.94;nan;100405.31;4972254;28;20780;-86
2023/08/07 03:17:20;;;;;;;0.50;0.50;;;;;;;19.95;nan;100405.19;4989127;28;20111;-87
2023/08/07 03:19:46;;;;;;;0.50;0.50;;;;;;;19.95;nan;100409.63;4990089;28;20061;-86
2023/08/07 03:22:11;;;;;;;0.50;0.50;;;;;;;19.92;nan;100410.72;4970779;28;20042;-86
2023/08/07 03:24:37;;;;;;;0.50;0.45;;;;;;;19.94;nan;100411.44;4973386;28;20030;-84
2023/08/07 03:27:02;;;;;;;0.50;0.50;;;;;;;19.95;nan;100422.81;4989004;28;20072;-86
2023/08/07 03:29:28;;;;;;;0.50;0.50;;;;;;;19.94;nan;100410.59;4989521;28;20478;-86
2023/08/07 03:31:53;;;;;;;0.60;0.60;;;;;;;19.94;nan;100413.22;4986657;28;20069;-85
2023/08/07 03:34:19;;;;;;;0.43;0.43;;;;;;;19.94;nan;100419.34;4971142;28;22038;-88
2023/08/07 03:36:44;;;;;;;0.60;0.60;;;;;;;19.93;nan;100417.66;4988551;28;20037;-86
2023/08/07 03:39:11;;;;;;;0.60;0.60;;;;;;;19.92;nan;100421.25;4972045;28;20041;-87
2023/08/07 03:41:37;;;;;;;0.40;0.40;;;;;;;19.93;nan;100417.66;4992279;28;20026;-86
2023/08/07 03:44:02;;;;;;;0.50;0.50;;;;;;;19.93;nan;100416.81;4994430;28;20033;-85
2023/08/07 03:46:27;;;;;;;0.70;0.70;;;;;;;19.92;nan;100421.25;4987117;28;20494;-86
2023/08/07 03:48:53;;;;;;;0.63;0.47;;;;;;;19.91;nan;100413.44;4972795;28;20057;-85
2023/08/07 03:51:18;;;;;;;0.45;0.40;;;;;;;19.90;nan;100417.84;4987013;28;20061;-85
2023/08/07 03:53:43;;;;;;;0.50;0.50;;;;;;;19.91;nan;100416.94;4990926;28;20054;-86
2023/08/07 03:56:09;;;;;;;0.47;0.43;;;;;;;19.91;nan;100423.97;4991747;28;20022;-85
2023/08/07 03:58:34;;;;;;;0.32;0.32;;;;;;;19.91;nan;100426.59;4989674;28;20026;-85
2023/08/07 04:01:00;;;;;;;0.60;0.60;;;;;;;19.91;nan;100426.59;4969429;28;20046;-85
2023/08/07 04:03:25;;;;;;;0.50;0.50;;;;;;;19.91;nan;100422.22;4986971;28;20529;-85
2023/08/07 04:05:54;;;;;;;0.57;0.57;;;;;;;19.90;nan;100428.41;4989812;28;20037;-85
2023/08/07 04:08:21;;;;;;;0.40;0.40;;;;;;;19.90;nan;100424.94;4970013;28;20486;-85
2023/08/07 04:11:04;;;;;;;0.65;0.50;;;;;;;19.90;nan;100424.94;4989144;28;20057;-85
2023/08/07 04:13:30;;;;;;;0.47;0.47;;;;;;;19.91;nan;100429.25;4992220;28;20035;-85
2023/08/07 04:15:55;;;;;;;0.47;0.47;;;;;;;19.90;nan;100432.84;4987145;28;20080;-86
2023/08/07 04:18:22;;;;;;;0.70;0.50;;;;;;;19.89;nan;100424.09;4989504;28;20034;-86
2023/08/07 04:20:52;;;;;;;0.57;0.57;;;;;;;19.91;nan;100429.25;4989981;28;20053;-86
2023/08/07 04:23:17;;;;;;;0.50;0.50;;;;;;;19.90;nan;100431.03;4991020;28;20045;-86
2023/08/07 04:25:43;;;;;;;0.60;0.60;;;;;;;19.90;nan;100438.94;4987452;28;20734;-86
2023/08/07 04:28:08;;;;;;;0.43;0.43;;;;;;;19.89;nan;100436.44;4986405;28;20030;-86
2023/08/07 04:30:34;;;;;;;0.70;0.70;;;;;;;19.90;nan;100435.47;4987438;28;20026;-86
2023/08/07 04:36:21;;;;;;;0.52;0.52;;;;;;;19.89;nan;100442.53;4990693;28;20130;-86
2023/08/07 04:38:46;;;;;;;0.50;0.50;;;;;;;19.90;nan;100446.00;4990146;28;20037;-86
2023/08/07 04:41:12;;;;;;;0.40;0.40;;;;;;;19.89;nan;100444.31;4987994;28;20053;-86
2023/08/07 04:43:37;;;;;;;0.60;0.60;;;;;;;19.88;nan;100447.91;4973979;28;20026;-87
2023/08/07 04:46:02;;;;;;;0.60;0.60;;;;;;;19.89;nan;100454.88;4988530;28;20053;-86
2023/08/07 04:48:39;;;;;;;0.50;0.50;;;;;;;19.88;nan;100458.47;4971397;28;20042;-85
2023/08/07 04:51:04;;;;;;;0.60;0.60;;;;;;;19.88;nan;100453.19;4987988;28;20038;-86
2023/08/07 04:53:29;;;;;;;0.65;0.50;;;;;;;19.88;nan;100461.09;4973370;28;20041;-86
2023/08/07 04:55:55;;;;;;;0.57;0.57;;;;;;;19.88;nan;100461.94;4988373;28;20036;-86
2023/08/07 05:01:42;;;;;;;0.50;0.50;;;;;;;19.88;nan;100471.63;4989838;28;20045;-86
2023/08/07 05:04:07;;;;;;;0.50;0.50;;;;;;;19.88;nan;100469.00;4993235;28;20017;-86
2023/08/07 05:13:18;;;;;;;0.60;0.60;;;;;;;19.86;nan;100466.47;4996030;28;20045;-86
2023/08/07 05:15:46;;;;;;;0.60;0.60;;;;;;;19.85;nan;100476.19;4992715;28;20038;-86
2023/08/07 05:18:12;;;;;;;0.70;0.50;;;;;;;19.86;nan;100469.13;4992023;28;20042;-86
2023/08/07 05:20:37;;;;;;;0.57;0.57;;;;;;;19.85;nan;100467.41;4994166;28;20521;-86
2023/08/07 05:23:02;;;;;;;0.52;0.52;;;;;;;19.85;nan;100465.66;4993812;28;20720;-86
2023/08/07 05:25:28;;;;;;;0.57;0.57;;;;;;;19.86;nan;100466.47;4998059;28;20465;-86
2023/08/07 05:27:53;;;;;;;0.50;0.50;;;;;;;19.84;nan;100471.00;4973602;28;20405;-86
2023/08/07 05:30:18;;;;;;;0.45;0.45;;;;;;;19.83;nan;100472.78;4989669;28;20498;-86
2023/08/07 05:32:44;;;;;;;0.60;0.60;;;;;;;19.84;nan;100479.75;4989951;28;20034;-85
2023/08/07 05:35:09;;;;;;;0.50;0.50;;;;;;;19.84;nan;100466.56;4979003;28;20647;-86
2023/08/07 05:37:35;;;;;;;0.50;0.50;;;;;;;19.83;nan;100470.16;4992164;28;20042;-85
2023/08/07 05:40:01;;;;;;;0.40;0.40;;;;;;;19.84;nan;100477.09;4975029;28;20230;-85
2023/08/07 05:42:26;;;;;;;0.50;0.50;;;;;;;19.84;nan;100482.38;4989109;28;20405;-85
2023/08/07 05:44:51;;;;;;;0.60;0.60;;;;;;;19.84;nan;100485.00;4975793;28;20053;-85
2023/08/07 05:47:17;;;;;;;0.50;0.50;;;;;;;19.87;nan;100485.75;4974644;28;20026;-84
2023/08/07 05:49:42;;;;;;;0.47;0.47;;;;;;;19.85;nan;100483.22;4974662;28;20052;-86
2023/08/07 05:52:08;;;;;;;0.60;0.60;;;;;;;19.85;nan;100491.13;4990201;28;20106;-85
2023/08/07 05:54:33;;;;;;;0.50;0.50;;;;;;;19.84;nan;100482.38;4992721;28;20087;-86
2023/08/07 05:57:36;;;;;;;0.50;0.43;;;;;;;19.85;nan;100499.03;4991206;28;20037;-86
2023/08/07 06:00:02;;;;;;;0.50;0.50;;;;;;;19.84;nan;100487.66;4973159;28;20746;-85
2023/08/07 06:02:27;;;;;;;0.50;0.50;;;;;;;19.84;nan;100497.34;4994122;28;20085;-85
2023/08/07 06:04:52;;;;;;;0.50;0.50;;;;;;;19.86;nan;100492.84;4978032;28;20061;-85
2023/08/07 06:07:18;;;;;;;0.50;0.50;;;;;;;19.85;nan;100493.75;4991634;28;20117;-84
2023/08/07 06:09:43;;;;;;;0.63;0.63;;;;;;;19.84;nan;100499.97;4991851;28;20030;-86
2023/08/07 06:12:08;;;;;;;0.50;0.50;;;;;;;19.84;nan;100495.56;4980466;28;20458;-85
2023/08/07 06:14:34;;;;;;;0.50;0.50;;;;;;;19.86;nan;100500.72;4980414;28;20026;-86
2023/08/07 06:17:01;;;;;;;0.40;0.40;;;;;;;19.86;nan;100508.63;4974033;28;20030;-85
2023/08/07 06:19:27;;;;;;;0.50;0.50;;;;;;;19.86;nan;100508.63;4992059;28;20084;-86
2023/08/07 06:21:52;;;;;;;0.60;0.60;;;;;;;19.85;nan;100510.44;4995142;28;20047;-85
2023/08/07 06:24:18;;;;;;;0.40;0.40;;;;;;;19.87;nan;100514.75;4995884;28;20029;-86
2023/08/07 06:26:43;;;;;;;0.50;0.50;;;;;;;19.85;nan;100512.19;4991388;28;20025;-86
2023/08/07 06:29:08;;;;;;;0.60;0.60;;;;;;;19.83;nan;100512.31;4991627;28;20025;-86
2023/08/07 06:31:34;;;;;;;0.55;0.55;;;;;;;19.86;nan;100521.81;4974974;28;20036;-86
2023/08/07 06:33:59;;;;;;;0.60;0.60;;;;;;;19.85;nan;100510.44;4997103;28;20112;-86
2023/08/07 06:36:25;;;;;;;0.60;0.60;;;;;;;19.84;nan;100521.91;4992946;28;20058;-86
2023/08/07 06:38:51;;;;;;;0.57;0.57;;;;;;;19.84;nan;100524.53;4990660;28;20792;-85
2023/08/07 06:41:16;;;;;;;0.50;0.50;;;;;;;19.84;nan;100521.91;4990556;28;20099;-86
2023/08/07 06:43:41;;;;;;;0.50;0.50;;;;;;;19.84;nan;100529.81;4993934;28;20040;-85
2023/08/07 06:46:07;;;;;;;0.50;0.50;;;;;;;19.84;nan;100532.44;4977634;28;20156;-86
2023/08/07 06:48:32;;;;;;;0.50;0.50;;;;;;;19.84;nan;100528.97;4990225;28;20033;-85
2023/08/07 06:50:58;;;;;;;0.50;0.50;;;;;;;19.84;nan;100542.13;4979684;28;20727;-86
2023/08/07 06:53:23;;;;;;;1.50;0.70;;;;;;;19.83;nan;100538.66;4994441;28;20905;-86
2023/08/07 06:55:48;;;;;;;0.50;0.50;;;;;;;19.84;nan;100560.56;4993770;28;20505;-86
2023/08/07 06:58:14;;;;;;;0.60;0.60;;;;;;;19.84;nan;100556.16;4973386;28;20088;-86
2023/08/07 07:00:39;;;;;;;0.60;0.60;;;;;;;19.84;nan;100550.88;4991476;28;20034;-86
2023/08/07 07:03:10;;;;;;;0.60;0.60;;;;;;;19.83;nan;100562.38;4992708;28;20040;-85
2023/08/07 07:05:36;;;;;;;0.60;0.60;;;;;;;19.84;nan;100556.16;4973324;28;20044;-85
2023/08/07 07:08:01;;;;;;;0.57;0.57;;;;;;;19.83;nan;100561.53;4988440;28;20022;-86
2023/08/07 07:10:29;;;;;;;0.50;0.50;;;;;;;19.82;nan;100558.06;4990193;28;20092;-85
2023/08/07 07:12:55;;;;;;;0.52;0.52;;;;;;;19.82;nan;100557.22;4990173;28;20030;-86
2023/08/07 07:15:20;;;;;;;0.70;0.70;;;;;;;19.83;nan;100559.75;4994477;28;20504;-84
2023/08/07 07:17:46;;;;;;;0.50;0.50;;;;;;;19.81;nan;100556.38;4972142;28;20026;-84
2023/08/07 07:20:11;;;;;;;0.60;0.60;;;;;;;19.82;nan;100560.69;4972247;28;20041;-85
2023/08/07 07:22:36;;;;;;;0.60;0.60;;;;;;;19.83;nan;100569.44;4992205;28;20839;-84
2023/08/07 07:25:02;;;;;;;0.40;0.40;;;;;;;19.83;nan;100566.81;4989680;28;20112;-85
2023/08/07 07:27:27;;;;;;;0.50;0.50;;;;;;;19.82;nan;100571.22;4988455;28;20058;-85
2023/08/07 07:29:52;;;;;;;0.40;0.40;;;;;;;19.82;nan;100571.22;4973721;28;20049;-86
2023/08/07 07:32:18;;;;;;;0.70;0.70;;;;;;;19.82;nan;100568.59;4972544;28;20065;-85
2023/08/07 07:34:43;;;;;;;0.50;0.50;;;;;;;19.82;nan;100573.88;4989952;28;20065;-85
2023/08/07 07:37:09;;;;;;;0.68;0.65;;;;;;;19.82;nan;100573.88;4975060;28;20592;-85
2023/08/07 07:39:35;;;;;;;0.45;0.45;;;;;;;19.82;nan;100567.75;4988370;28;20030;-86
2023/08/07 07:42:00;;;;;;;0.52;0.50;;;;;;;19.81;nan;100572.19;4989757;28;20594;-85
2023/08/07 07:44:27;;;;;;;0.63;0.63;;;;;;;19.81;nan;100574.81;4992637;28;20141;-85
2023/08/07 07:46:52;;;;;;;0.43;0.43;;;;;;;19.81;nan;100577.47;4971618;28;20040;-85
2023/08/07 07:49:18;;;;;;;0.50;0.50;;;;;;;19.83;nan;100580.81;4987341;28;20112;-85
2023/08/07 07:51:44;;;;;;;0.60;0.60;;;;;;;19.83;nan;100588.72;4991782;28;20033;-85
2023/08/07 07:54:10;;;;;;;0.73;0.73;;;;;;;19.82;nan;100589.66;4989324;28;20084;-85
2023/08/07 07:56:35;;;;;;;0.68;0.50;;;;;;;19.83;nan;100591.34;4974244;28;20850;-85
2023/08/07 07:59:00;;;;;;;0.50;0.50;;;;;;;19.84;nan;100597.47;4970529;28;20030;-85
2023/08/07 08:01:26;;;;;;;0.70;0.70;;;;;;;19.84;nan;100595.66;4973047;28;20513;-85
2023/08/07 08:03:52;;;;;;;1.20;0.55;;;;;;;19.84;nan;100592.19;4990600;28;20030;-85
2023/08/07 08:06:18;;;;;;;0.60;0.60;;;;;;;19.84;nan;100593.03;4991728;28;20061;-85
2023/08/07 08:08:43;;;;;;;0.60;0.60;;;;;;;19.83;nan;100594.00;4988516;28;20029;-85
2023/08/07 08:11:08;;;;;;;0.50;0.50;;;;;;;19.85;nan;100601.78;4971296;28;20042;-85
2023/08/07 08:13:38;;;;;;;0.80;0.80;;;;;;;19.84;nan;100603.56;4990684;28;20045;-86
2023/08/07 08:16:04;;;;;;;0.70;0.70;;;;;;;19.84;nan;100614.13;4991212;28;20036;-85
2023/08/07 08:18:29;;;;;;;0.60;0.55;;;;;;;19.84;nan;100624.66;4989514;28;20031;-85
2023/08/07 08:20:55;;;;;;;1.27;0.60;;;;;;;19.84;nan;100618.53;4970608;28;20049;-85
2023/08/07 08:23:20;;;;;;;0.60;0.60;;;;;;;19.86;nan;100632.47;4973112;28;20034;-84
2023/08/07 08:25:46;;;;;;;0.40;0.40;;;;;;;19.83;nan;100615.06;4988516;28;20536;-85
2023/08/07 08:28:11;;;;;;;0.50;0.50;;;;;;;19.84;nan;100624.66;4988736;28;20037;-85
2023/08/07 08:30:36;;;;;;;0.70;0.70;;;;;;;19.83;nan;100625.59;4991536;28;20460;-85
2023/08/07 08:33:02;;;;;;;0.73;0.73;;;;;;;19.83;nan;100622.97;4990962;28;20367;-86
2023/08/07 08:35:27;;;;;;;0.60;0.60;;;;;;;19.83;nan;100622.13;4972160;28;20065;-85
2023/08/07 08:37:52;;;;;;;0.57;0.55;;;;;;;19.83;nan;100622.97;4994601;28;20064;-85
2023/08/07 08:40:19;;;;;;;1.40;0.60;;;;;;;19.83;nan;100624.75;4973780;28;20025;-85
2023/08/07 08:42:45;;;;;;;1.15;0.50;;;;;;;19.84;nan;100619.38;4990491;28;20037;-84
2023/08/07 08:45:12;;;;;;;0.60;0.60;;;;;;;19.83;nan;100622.97;4970870;28;20030;-84
2023/08/07 08:47:38;;;;;;;0.50;0.50;;;;;;;19.85;nan;100630.75;4992314;28;20033;-85
2023/08/07 08:50:09;;;;;;;0.60;0.60;;;;;;;19.87;nan;100633.31;4977640;28;20117;-85
2023/08/07 08:52:40;;;;;;;0.50;0.50;;;;;;;19.87;nan;100644.69;4991817;28;20848;-85
2023/08/07 08:55:06;;;;;;;0.60;0.60;;;;;;;19.89;nan;100636.69;4975249;28;20030;-85
2023/08/07 08:57:32;;;;;;;0.52;0.52;;;;;;;19.90;nan;100641.00;4992065;28;20033;-85
2023/08/07 08:59:58;;;;;;;0.40;0.40;;;;;;;19.88;nan;100641.09;4975283;28;20038;-85
2023/08/07 09:02:24;;;;;;;0.50;0.50;;;;;;;19.89;nan;100644.56;4994401;28;20717;-85
2023/08/07 09:04:50;;;;;;;1.00;0.60;;;;;;;19.87;nan;100634.16;4982220;28;20038;-85
2023/08/07 09:07:19;;;;;;;0.70;0.70;;;;;;;19.87;nan;100639.41;4990744;28;20084;-85
2023/08/07 09:09:46;;;;;;;0.77;0.60;;;;;;;19.87;nan;100639.41;4991437;28;20552;-84
2023/08/07 09:12:16;;;;;;;0.70;0.70;;;;;;;19.88;nan;100642.91;4990554;28;20033;-84
2023/08/07 09:14:44;;;;;;;0.70;0.70;;;;;;;19.85;nan;100638.66;4970062;28;20066;-85
2023/08/07 09:17:10;;;;;;;0.60;0.60;;;;;;;19.86;nan;100656.19;4989844;28;20030;-85
2023/08/07 09:19:35;;;;;;;0.70;0.70;;;;;;;19.87;nan;100651.75;4990470;28;20855;-85
2023/08/07 09:22:01;;;;;;;0.50;0.50;;;;;;;19.83;nan;100653.75;4992701;28;20050;-85
2023/08/07 09:24:26;;;;;;;0.50;0.50;;;;;;;19.83;nan;100654.59;4999335;28;20034;-85
2023/08/07 09:26:53;;;;;;;1.23;0.70;;;;;;;19.84;nan;100656.25;4990883;28;20437;-85
2023/08/07 09:29:18;;;;;;;0.50;0.50;;;;;;;19.84;nan;100669.44;4990454;28;20037;-85
2023/08/07 09:31:47;;;;;;;0.52;0.52;;;;;;;19.84;nan;100663.34;4991651;28;21271;-85
2023/08/07 09:34:16;;;;;;;0.90;0.70;;;;;;;19.83;nan;100669.56;5000214;28;20030;-85
2023/08/07 09:36:41;;;;;;;0.93;0.50;;;;;;;19.83;nan;100665.13;4994308;28;20513;-84
2023/08/07 09:39:07;;;;;;;0.50;0.50;;;;;;;19.84;nan;100666.81;4992842;28;20030;-85
2023/08/07 09:41:34;;;;;;;0.50;0.50;;;;;;;19.83;nan;100670.41;4993980;28;20044;-85
2023/08/07 09:44:08;;;;;;;0.60;0.60;;;;;;;19.83;nan;100665.13;4995328;28;20137;-85
2023/08/07 09:46:41;;;;;;;0.55;0.55;;;;;;;19.84;nan;100674.72;4993286;28;20026;-85
2023/08/07 09:49:06;;;;;;;0.77;0.75;;;;;;;19.83;nan;100670.41;4993074;28;20026;-85
2023/08/07 09:51:44;;;;;;;0.60;0.60;;;;;;;19.83;nan;100670.41;4993205;28;20553;-85
2023/08/07 09:54:10;;;;;;;0.77;0.60;;;;;;;19.83;nan;100669.56;4990549;28;20548;-85
2023/08/07 09:56:36;;;;;;;0.60;0.60;;;;;;;19.84;nan;100677.34;4993520;28;20030;-85
2023/08/07 09:59:01;;;;;;;0.60;0.60;;;;;;;19.83;nan;100680.94;4976199;28;20479;-85
2023/08/07 10:01:26;;;;;;;0.57;0.50;;;;;;;19.83;nan;100680.09;4990485;28;20532;-85
2023/08/07 10:03:52;;;;;;;0.50;0.50;;;;;;;19.82;nan;100679.25;4977875;28;20049;-85
2023/08/07 10:06:18;;;;;;;0.60;0.60;;;;;;;19.82;nan;100694.22;4990993;28;20101;-85
2023/08/07 10:08:45;;;;;;;0.50;0.50;;;;;;;19.81;nan;100693.38;4974811;28;20049;-86
2023/08/07 10:11:11;;;;;;;0.60;0.60;;;;;;;19.80;nan;100689.06;4973427;28;20034;-85
2023/08/07 10:13:37;;;;;;;0.80;0.70;;;;;;;19.81;nan;100698.66;4997996;28;20049;-85
2023/08/07 10:16:03;;;;;;;0.68;0.63;;;;;;;19.82;nan;100694.22;4996473;28;20897;-85
2023/08/07 10:18:29;;;;;;;0.50;0.50;;;;;;;19.83;nan;100686.19;4991746;28;20038;-85
2023/08/07 10:20:54;;;;;;;0.50;0.50;;;;;;;19.81;nan;100693.38;4992361;28;20130;-85
2023/08/07 10:23:20;;;;;;;0.75;0.75;;;;;;;19.81;nan;100698.66;4992751;28;20525;-85
2023/08/07 10:25:48;;;;;;;0.60;0.60;;;;;;;19.83;nan;100695.91;4979909;28;20414;-84
2023/08/07 10:28:15;;;;;;;0.75;0.73;;;;;;;19.83;nan;100694.09;4988201;28;20042;-85
2023/08/07 10:30:41;;;;;;;0.50;0.50;;;;;;;19.82;nan;100695.06;4988849;28;20030;-85
2023/08/07 10:33:09;;;;;;;0.60;0.60;;;;;;;19.82;nan;100702.97;4971881;28;20062;-85
2023/08/07 10:35:34;;;;;;;0.80;0.77;;;;;;;19.81;nan;100703.91;4988764;28;20037;-84
2023/08/07 10:38:10;;;;;;;0.60;0.60;;;;;;;19.81;nan;100700.44;4991358;28;21354;-84
2023/08/07 10:41:08;;;;;;;0.90;0.70;;;;;;;19.81;nan;100700.44;4990675;28;20034;-84
2023/08/07 10:43:42;;;;;;;0.75;0.70;;;;;;;19.81;nan;100701.28;4971899;28;20037;-84
2023/08/07 10:46:23;;;;;;;0.75;0.75;;;;;;;19.82;nan;100702.13;4976264;28;20057;-85
2023/08/07 10:48:56;;;;;;;0.68;0.68;;;;;;;19.81;nan;100703.06;4975139;28;20037;-84
2023/08/07 10:51:28;;;;;;;0.60;0.60;;;;;;;19.81;nan;100703.91;4988397;28;20034;-85
2023/08/07 10:53:56;;;;;;;0.60;0.60;;;;;;;19.82;nan;100705.59;4992038;28;20493;-85
2023/08/07 10:56:32;;;;;;;0.60;0.60;;;;;;;19.81;nan;100708.34;4975130;28;20045;-85
2023/08/07 10:58:58;;;;;;;1.83;0.70;;;;;;;19.81;nan;100706.56;4979979;28;20026;-85
2023/08/07 11:01:26;;;;;;;0.60;0.60;;;;;;;19.81;nan;100709.19;4979847;28;20375;-84
2023/08/07 11:03:56;;;;;;;0.50;0.50;;;;;;;19.80;nan;100702.25;4992999;28;20033;-84
2023/08/07 11:06:32;;;;;;;0.68;0.68;;;;;;;19.80;nan;100712.78;4974338;28;20040;-84
2023/08/07 11:09:04;;;;;;;0.77;0.63;;;;;;;19.79;nan;100705.78;4973905;28;20033;-84
2023/08/07 11:11:39;;;;;;;0.63;0.63;;;;;;;19.80;nan;100715.41;4987759;28;20768;-85
2023/08/07 11:14:06;;;;;;;0.50;0.50;;;;;;;19.80;nan;100712.78;4977306;28;20054;-84
2023/08/07 11:16:32;;;;;;;0.60;0.60;;;;;;;19.80;nan;100718.03;4988211;28;20045;-84
2023/08/07 11:18:58;;;;;;;0.80;0.80;;;;;;;19.79;nan;100711.06;4988698;28;20068;-85
2023/08/07 11:21:23;;;;;;;1.00;0.60;;;;;;;19.79;nan;100716.34;4971784;28;20050;-84
2023/08/07 11:23:49;;;;;;;0.70;0.70;;;;;;;19.79;nan;100712.84;4982604;28;20068;-83
2023/08/07 11:26:14;;;;;;;0.80;0.70;;;;;;;19.79;nan;100716.34;4973819;28;20030;-85
2023/08/07 11:28:40;;;;;;;0.60;0.60;;;;;;;19.79;nan;100716.34;4990475;28;20030;-85
2023/08/07 11:31:06;;;;;;;0.30;0.30;;;;;;;19.79;nan;100716.34;4991581;28;20592;-84
2023/08/07 11:33:31;;;;;;;0.68;0.68;;;;;;;19.78;nan;100714.66;4993900;28;20029;-84
2023/08/07 11:35:57;;;;;;;0.77;0.77;;;;;;;19.77;nan;100710.34;4988480;28;20175;-85
2023/08/07 11:38:44;;;;;;;0.65;0.65;;;;;;;19.77;nan;100705.06;4975523;28;20041;-85
2023/08/07 11:41:10;;;;;;;0.70;0.70;;;;;;;19.77;nan;100707.69;4989602;28;20779;-84
2023/08/07 11:43:36;;;;;;;0.57;0.57;;;;;;;19.77;nan;100698.94;4972977;28;20027;-85
2023/08/07 11:46:04;;;;;;;0.50;0.50;;;;;;;19.77;nan;100707.69;4971486;28;20064;-86
2023/08/07 11:48:30;;;;;;;0.60;0.60;;;;;;;19.77;nan;100699.78;4987544;28;20075;-85
2023/08/07 11:50:57;;;;;;;0.50;0.50;;;;;;;19.79;nan;100704.94;4987778;28;20021;-86
2023/08/07 11:53:24;;;;;;;0.50;0.50;;;;;;;19.78;nan;100695.38;4976506;28;20171;-85